sensor_id;sensor_type;location;lat;lon;timestamp;pressure;altitude;pressure_sealevel;temperature;humidity
62436;BME280;48480;50.252;18.848;2022-10-15T00:00:39;98616.46;;;10.21;77.08
62436;BME280;48480;50.252;18.848;2022-10-15T00:03:23;98615.27;;;10.24;76.95
62436;BME280;48480;50.252;18.848;2022-10-15T00:06:11;98614.08;;;10.24;77.06
62436;BME280;48480;50.252;18.848;2022-10-15T00:08:55;98613.98;;;10.24;77.18
62436;BME280;48480;50.252;18.848;2022-10-15T00:11:39;98616.11;;;10.25;77.14
62436;BME280;48480;50.252;18.848;2022-10-15T00:14:23;98614.45;;;10.27;77.21
62436;BME280;48480;50.252;18.848;2022-10-15T00:17:07;98611.81;;;10.29;77.01
62436;BME280;48480;50.252;18.848;2022-10-15T00:19:51;98611.91;;;10.32;76.93
62436;BME280;48480;50.252;18.848;2022-10-15T00:22:36;98610.15;;;10.34;76.86
62436;BME280;48480;50.252;18.848;2022-10-15T00:25:20;98609.00;;;10.37;76.49
62436;BME280;48480;50.252;18.848;2022-10-15T00:28:04;98609.98;;;10.40;76.59
62436;BME280;48480;50.252;18.848;2022-10-15T00:30:48;98604.30;;;10.42;76.46
62436;BME280;48480;50.252;18.848;2022-10-15T00:33:33;98605.31;;;10.42;76.64
62436;BME280;48480;50.252;18.848;2022-10-15T00:36:23;98601.09;;;10.44;76.78
62436;BME280;48480;50.252;18.848;2022-10-15T00:39:09;98596.97;;;10.44;76.96
62436;BME280;48480;50.252;18.848;2022-10-15T00:41:53;98594.44;;;10.44;77.16
62436;BME280;48480;50.252;18.848;2022-10-15T00:44:56;98595.27;;;10.47;77.02
62436;BME280;48480;50.252;18.848;2022-10-15T00:47:44;98591.38;;;10.48;77.02
62436;BME280;48480;50.252;18.848;2022-10-15T00:50:30;98593.33;;;10.51;77.03
62436;BME280;48480;50.252;18.848;2022-10-15T00:53:14;98593.58;;;10.51;77.29
62436;BME280;48480;50.252;18.848;2022-10-15T00:55:58;98590.48;;;10.53;77.57
62436;BME280;48480;50.252;18.848;2022-10-15T00:58:44;98584.09;;;10.54;77.60
62436;BME280;48480;50.252;18.848;2022-10-15T01:01:29;98580.27;;;10.54;77.58
62436;BME280;48480;50.252;18.848;2022-10-15T01:04:13;98574.62;;;10.53;77.79
62436;BME280;48480;50.252;18.848;2022-10-15T01:07:00;98573.17;;;10.51;77.96
62436;BME280;48480;50.252;18.848;2022-10-15T01:09:44;98571.19;;;10.53;77.91
62436;BME280;48480;50.252;18.848;2022-10-15T01:15:32;98569.52;;;10.53;77.42
62436;BME280;48480;50.252;18.848;2022-10-15T01:18:21;98569.47;;;10.50;77.25
62436;BME280;48480;50.252;18.848;2022-10-15T01:21:15;98565.02;;;10.47;77.29
62436;BME280;48480;50.252;18.848;2022-10-15T01:24:39;98560.69;;;10.44;77.55
62436;BME280;48480;50.252;18.848;2022-10-15T01:27:31;98548.70;;;10.44;79.29
62436;BME280;48480;50.252;18.848;2022-10-15T01:33:21;98544.81;;;10.50;81.46
62436;BME280;48480;50.252;18.848;2022-10-15T01:36:17;98549.45;;;10.55;81.57
62436;BME280;48480;50.252;18.848;2022-10-15T01:39:21;98547.30;;;10.57;81.91
62436;BME280;48480;50.252;18.848;2022-10-15T01:42:29;98547.48;;;10.58;82.15
62436;BME280;48480;50.252;18.848;2022-10-15T01:45:20;98538.30;;;10.51;82.47
62436;BME280;48480;50.252;18.848;2022-10-15T01:48:08;98544.59;;;10.60;82.58
62436;BME280;48480;50.252;18.848;2022-10-15T01:50:58;98536.10;;;10.59;82.78
62436;BME280;48480;50.252;18.848;2022-10-15T01:53:44;98527.61;;;10.57;82.71
62436;BME280;48480;50.252;18.848;2022-10-15T01:56:30;98528.15;;;10.62;82.91
62436;BME280;48480;50.252;18.848;2022-10-15T01:59:18;98533.55;;;10.66;82.82
62436;BME280;48480;50.252;18.848;2022-10-15T02:02:03;98532.30;;;10.71;82.81
62436;BME280;48480;50.252;18.848;2022-10-15T02:04:47;98531.21;;;10.76;82.82
62436;BME280;48480;50.252;18.848;2022-10-15T02:07:46;98533.29;;;10.79;82.74
62436;BME280;48480;50.252;18.848;2022-10-15T02:10:58;98529.06;;;10.79;82.75
62436;BME280;48480;50.252;18.848;2022-10-15T02:14:10;98528.52;;;10.77;83.02
62436;BME280;48480;50.252;18.848;2022-10-15T02:17:05;98519.54;;;10.74;83.01
62436;BME280;48480;50.252;18.848;2022-10-15T02:19:55;98523.83;;;10.82;82.97
62436;BME280;48480;50.252;18.848;2022-10-15T02:22:49;98522.02;;;10.86;82.83
62436;BME280;48480;50.252;18.848;2022-10-15T02:25:39;98514.07;;;10.88;82.72
62436;BME280;48480;50.252;18.848;2022-10-15T02:28:24;98510.97;;;10.89;82.71
62436;BME280;48480;50.252;18.848;2022-10-15T02:31:11;98509.67;;;10.89;82.67
62436;BME280;48480;50.252;18.848;2022-10-15T02:34:01;98511.33;;;10.88;82.60
62436;BME280;48480;50.252;18.848;2022-10-15T02:36:48;98513.10;;;10.87;82.62
62436;BME280;48480;50.252;18.848;2022-10-15T02:39:32;98509.62;;;10.85;82.65
62436;BME280;48480;50.252;18.848;2022-10-15T02:42:17;98505.55;;;10.84;82.63
62436;BME280;48480;50.252;18.848;2022-10-15T02:45:01;98494.08;;;10.83;82.61
62436;BME280;48480;50.252;18.848;2022-10-15T02:47:46;98483.20;;;10.80;82.59
62436;BME280;48480;50.252;18.848;2022-10-15T02:50:30;98481.67;;;10.73;82.76
62436;BME280;48480;50.252;18.848;2022-10-15T02:53:14;98478.45;;;10.68;82.93
62436;BME280;48480;50.252;18.848;2022-10-15T02:55:58;98479.40;;;10.64;82.91
62436;BME280;48480;50.252;18.848;2022-10-15T02:58:42;98472.33;;;10.58;83.10
62436;BME280;48480;50.252;18.848;2022-10-15T03:01:26;98469.99;;;10.56;83.15
62436;BME280;48480;50.252;18.848;2022-10-15T03:04:10;98471.84;;;10.56;83.36
62436;BME280;48480;50.252;18.848;2022-10-15T03:06:55;98468.10;;;10.56;83.44
62436;BME280;48480;50.252;18.848;2022-10-15T03:09:39;98465.63;;;10.56;83.72
62436;BME280;48480;50.252;18.848;2022-10-15T03:12:23;98459.42;;;10.57;83.74
62436;BME280;48480;50.252;18.848;2022-10-15T03:15:09;98452.48;;;10.56;83.87
62436;BME280;48480;50.252;18.848;2022-10-15T03:17:52;98450.33;;;10.56;83.89
62436;BME280;48480;50.252;18.848;2022-10-15T03:20:36;98446.20;;;10.56;83.83
62436;BME280;48480;50.252;18.848;2022-10-15T03:23:20;98444.75;;;10.60;83.85
62436;BME280;48480;50.252;18.848;2022-10-15T03:26:05;98445.48;;;10.63;83.84
62436;BME280;48480;50.252;18.848;2022-10-15T03:28:49;98441.02;;;10.64;83.79
62436;BME280;48480;50.252;18.848;2022-10-15T03:31:33;98437.63;;;10.65;83.78
62436;BME280;48480;50.252;18.848;2022-10-15T03:34:17;98437.65;;;10.66;83.77
62436;BME280;48480;50.252;18.848;2022-10-15T03:37:01;98439.34;;;10.68;83.58
62436;BME280;48480;50.252;18.848;2022-10-15T03:39:44;98441.75;;;10.68;83.47
62436;BME280;48480;50.252;18.848;2022-10-15T03:42:29;98434.59;;;10.64;83.38
62436;BME280;48480;50.252;18.848;2022-10-15T03:45:13;98432.63;;;10.58;83.33
62436;BME280;48480;50.252;18.848;2022-10-15T03:47:57;98431.75;;;10.56;83.20
62436;BME280;48480;50.252;18.848;2022-10-15T03:50:40;98432.82;;;10.52;83.08
62436;BME280;48480;50.252;18.848;2022-10-15T03:53:25;98431.11;;;10.49;83.08
62436;BME280;48480;50.252;18.848;2022-10-15T03:56:09;98431.46;;;10.49;83.11
62436;BME280;48480;50.252;18.848;2022-10-15T03:58:52;98431.79;;;10.49;83.06
62436;BME280;48480;50.252;18.848;2022-10-15T04:01:36;98429.48;;;10.49;83.25
62436;BME280;48480;50.252;18.848;2022-10-15T04:04:02;98423.67;;;10.47;83.19
62436;BME280;48480;50.252;18.848;2022-10-15T04:06:27;98423.73;;;10.47;83.07
62436;BME280;48480;50.252;18.848;2022-10-15T04:08:53;98427.73;;;10.48;83.04
62436;BME280;48480;50.252;18.848;2022-10-15T04:11:18;98428.09;;;10.47;83.07
62436;BME280;48480;50.252;18.848;2022-10-15T04:13:47;98424.56;;;10.45;82.86
62436;BME280;48480;50.252;18.848;2022-10-15T04:16:13;98417.23;;;10.42;82.86
62436;BME280;48480;50.252;18.848;2022-10-15T04:18:38;98415.97;;;10.40;82.89
62436;BME280;48480;50.252;18.848;2022-10-15T04:21:04;98417.10;;;10.40;82.92
62436;BME280;48480;50.252;18.848;2022-10-15T04:23:29;98416.45;;;10.40;82.98
62436;BME280;48480;50.252;18.848;2022-10-15T04:25:58;98414.10;;;10.39;82.98
62436;BME280;48480;50.252;18.848;2022-10-15T04:28:24;98410.45;;;10.38;83.03
62436;BME280;48480;50.252;18.848;2022-10-15T04:30:50;98407.77;;;10.38;83.08
62436;BME280;48480;50.252;18.848;2022-10-15T04:33:15;98406.04;;;10.37;82.99
62436;BME280;48480;50.252;18.848;2022-10-15T04:35:40;98404.04;;;10.37;83.00
62436;BME280;48480;50.252;18.848;2022-10-15T04:38:06;98404.09;;;10.39;82.94
62436;BME280;48480;50.252;18.848;2022-10-15T04:40:31;98403.63;;;10.40;82.86
62436;BME280;48480;50.252;18.848;2022-10-15T04:42:57;98403.13;;;10.39;82.66
62436;BME280;48480;50.252;18.848;2022-10-15T04:45:22;98401.08;;;10.34;82.64
62436;BME280;48480;50.252;18.848;2022-10-15T04:47:47;98402.39;;;10.31;82.75
62436;BME280;48480;50.252;18.848;2022-10-15T04:50:13;98404.98;;;10.29;82.76
62436;BME280;48480;50.252;18.848;2022-10-15T04:52:38;98405.38;;;10.29;82.84
62436;BME280;48480;50.252;18.848;2022-10-15T04:55:05;98400.91;;;10.27;82.90
62436;BME280;48480;50.252;18.848;2022-10-15T04:57:30;98397.16;;;10.28;83.04
62436;BME280;48480;50.252;18.848;2022-10-15T04:59:56;98399.44;;;10.29;83.04
62436;BME280;48480;50.252;18.848;2022-10-15T05:02:21;98395.61;;;10.25;83.02
62436;BME280;48480;50.252;18.848;2022-10-15T05:04:47;98405.17;;;10.29;83.12
62436;BME280;48480;50.252;18.848;2022-10-15T05:07:12;98405.73;;;10.28;83.28
62436;BME280;48480;50.252;18.848;2022-10-15T05:09:38;98406.95;;;10.28;83.32
62436;BME280;48480;50.252;18.848;2022-10-15T05:12:03;98409.61;;;10.30;83.32
62436;BME280;48480;50.252;18.848;2022-10-15T05:14:29;98408.03;;;10.30;83.32
62436;BME280;48480;50.252;18.848;2022-10-15T05:16:54;98408.42;;;10.34;83.31
62436;BME280;48480;50.252;18.848;2022-10-15T05:19:20;98408.05;;;10.38;83.18
62436;BME280;48480;50.252;18.848;2022-10-15T05:21:49;98409.48;;;10.42;83.25
62436;BME280;48480;50.252;18.848;2022-10-15T05:24:15;98399.79;;;10.41;83.17
62436;BME280;48480;50.252;18.848;2022-10-15T05:26:40;98404.27;;;10.49;83.10
62436;BME280;48480;50.252;18.848;2022-10-15T05:29:05;98404.64;;;10.56;83.09
62436;BME280;48480;50.252;18.848;2022-10-15T05:31:32;98401.52;;;10.63;82.96
62436;BME280;48480;50.252;18.848;2022-10-15T05:33:58;98402.42;;;10.70;82.74
62436;BME280;48480;50.252;18.848;2022-10-15T05:36:30;98401.12;;;10.77;82.70
62436;BME280;48480;50.252;18.848;2022-10-15T05:38:58;98403.48;;;10.84;82.55
62436;BME280;48480;50.252;18.848;2022-10-15T05:41:24;98404.02;;;10.91;82.32
62436;BME280;48480;50.252;18.848;2022-10-15T05:43:51;98405.36;;;10.96;82.18
62436;BME280;48480;50.252;18.848;2022-10-15T05:46:19;98403.02;;;11.00;81.92
62436;BME280;48480;50.252;18.848;2022-10-15T05:48:54;98407.44;;;11.03;81.73
62436;BME280;48480;50.252;18.848;2022-10-15T05:51:21;98408.21;;;11.07;81.71
62436;BME280;48480;50.252;18.848;2022-10-15T05:53:51;98411.67;;;11.13;81.51
62436;BME280;48480;50.252;18.848;2022-10-15T05:56:16;98415.95;;;11.20;81.40
62436;BME280;48480;50.252;18.848;2022-10-15T05:58:42;98414.98;;;11.24;81.22
62436;BME280;48480;50.252;18.848;2022-10-15T06:01:09;98413.84;;;11.28;81.08
62436;BME280;48480;50.252;18.848;2022-10-15T06:03:41;98414.89;;;11.34;80.94
62436;BME280;48480;50.252;18.848;2022-10-15T06:06:36;98410.02;;;11.38;80.83
62436;BME280;48480;50.252;18.848;2022-10-15T06:09:02;98413.70;;;11.45;80.60
62436;BME280;48480;50.252;18.848;2022-10-15T06:11:35;98418.58;;;11.50;80.50
62436;BME280;48480;50.252;18.848;2022-10-15T06:14:02;98412.91;;;11.57;80.29
62436;BME280;48480;50.252;18.848;2022-10-15T06:16:28;98417.52;;;11.64;80.21
62436;BME280;48480;50.252;18.848;2022-10-15T06:18:53;98416.69;;;11.75;80.08
62436;BME280;48480;50.252;18.848;2022-10-15T06:21:21;98413.33;;;11.86;79.81
62436;BME280;48480;50.252;18.848;2022-10-15T06:23:47;98411.73;;;11.94;79.63
62436;BME280;48480;50.252;18.848;2022-10-15T06:26:12;98419.39;;;12.08;79.40
62436;BME280;48480;50.252;18.848;2022-10-15T06:28:39;98419.16;;;12.20;79.13
62436;BME280;48480;50.252;18.848;2022-10-15T06:31:06;98419.46;;;12.30;78.83
62436;BME280;48480;50.252;18.848;2022-10-15T06:33:32;98423.65;;;12.39;78.52
62436;BME280;48480;50.252;18.848;2022-10-15T06:36:12;98407.07;;;12.38;78.24
62436;BME280;48480;50.252;18.848;2022-10-15T06:38:38;98425.27;;;12.57;78.15
62436;BME280;48480;50.252;18.848;2022-10-15T06:41:05;98400.48;;;12.47;77.88
62436;BME280;48480;50.252;18.848;2022-10-15T06:43:32;98430.23;;;12.72;77.39
62436;BME280;48480;50.252;18.848;2022-10-15T06:45:58;98427.48;;;12.72;77.27
62436;BME280;48480;50.252;18.848;2022-10-15T06:53:19;98436.56;;;12.93;76.97
62436;BME280;48480;50.252;18.848;2022-10-15T06:55:47;98439.46;;;13.01;76.71
62436;BME280;48480;50.252;18.848;2022-10-15T06:58:13;98442.64;;;13.11;76.63
62436;BME280;48480;50.252;18.848;2022-10-15T07:00:41;98441.21;;;13.20;76.48
62436;BME280;48480;50.252;18.848;2022-10-15T07:03:12;98445.11;;;13.31;75.98
62436;BME280;48480;50.252;18.848;2022-10-15T07:05:38;98441.16;;;13.38;75.77
62436;BME280;48480;50.252;18.848;2022-10-15T07:08:04;98442.02;;;13.46;75.51
62436;BME280;48480;50.252;18.848;2022-10-15T07:10:29;98442.10;;;13.53;75.35
62436;BME280;48480;50.252;18.848;2022-10-15T07:12:58;98442.27;;;13.59;75.14
62436;BME280;48480;50.252;18.848;2022-10-15T07:15:25;98441.50;;;13.63;74.93
62436;BME280;48480;50.252;18.848;2022-10-15T07:17:57;98444.04;;;13.71;74.67
62436;BME280;48480;50.252;18.848;2022-10-15T07:20:30;98446.38;;;13.76;74.52
62436;BME280;48480;50.252;18.848;2022-10-15T07:23:00;98453.63;;;13.84;74.47
62436;BME280;48480;50.252;18.848;2022-10-15T07:25:27;98454.75;;;13.92;74.32
62436;BME280;48480;50.252;18.848;2022-10-15T07:28:10;98463.55;;;14.00;73.95
62436;BME280;48480;50.252;18.848;2022-10-15T07:30:36;98447.21;;;14.00;73.64
62436;BME280;48480;50.252;18.848;2022-10-15T07:33:10;98466.05;;;14.19;73.54
62436;BME280;48480;50.252;18.848;2022-10-15T07:35:36;98463.73;;;14.29;73.22
62436;BME280;48480;50.252;18.848;2022-10-15T07:38:07;98459.77;;;14.38;72.97
62436;BME280;48480;50.252;18.848;2022-10-15T07:40:33;98455.47;;;14.47;72.62
62436;BME280;48480;50.252;18.848;2022-10-15T07:42:59;98408.52;;;14.28;72.41
62436;BME280;48480;50.252;18.848;2022-10-15T07:45:26;98448.84;;;14.65;72.16
62436;BME280;48480;50.252;18.848;2022-10-15T07:47:52;98446.64;;;14.74;71.81
62436;BME280;48480;50.252;18.848;2022-10-15T07:52:50;98450.37;;;14.97;71.40
62436;BME280;48480;50.252;18.848;2022-10-15T07:55:16;98454.02;;;15.13;70.73
62436;BME280;48480;50.252;18.848;2022-10-15T07:57:41;98455.00;;;15.24;70.61
62436;BME280;48480;50.252;18.848;2022-10-15T08:00:07;98459.49;;;15.30;70.36
62436;BME280;48480;50.252;18.848;2022-10-15T08:02:33;98464.49;;;15.32;70.00
62436;BME280;48480;50.252;18.848;2022-10-15T08:05:02;98448.45;;;15.18;69.89
62436;BME280;48480;50.252;18.848;2022-10-15T08:07:35;98472.86;;;15.34;69.96
62436;BME280;48480;50.252;18.848;2022-10-15T08:10:00;98441.95;;;15.09;69.82
62436;BME280;48480;50.252;18.848;2022-10-15T08:12:26;98477.95;;;15.28;69.82
62436;BME280;48480;50.252;18.848;2022-10-15T08:14:51;98479.63;;;15.24;69.94
62436;BME280;48480;50.252;18.848;2022-10-15T08:17:17;98469.65;;;15.14;70.08
62436;BME280;48480;50.252;18.848;2022-10-15T08:22:13;98478.76;;;15.14;69.85
62436;BME280;48480;50.252;18.848;2022-10-15T08:24:41;98474.80;;;15.11;69.26
62436;BME280;48480;50.252;18.848;2022-10-15T08:27:07;98469.25;;;15.08;69.23
62436;BME280;48480;50.252;18.848;2022-10-15T08:29:33;98434.21;;;14.88;68.88
62436;BME280;48480;50.252;18.848;2022-10-15T08:34:35;98465.16;;;15.11;68.98
62436;BME280;48480;50.252;18.848;2022-10-15T08:37:02;98468.64;;;15.14;68.41
62436;BME280;48480;50.252;18.848;2022-10-15T08:39:27;98469.98;;;15.18;67.83
62436;BME280;48480;50.252;18.848;2022-10-15T08:41:59;98442.77;;;15.05;68.09
62436;BME280;48480;50.252;18.848;2022-10-15T08:47:01;98477.60;;;15.37;67.32
62436;BME280;48480;50.252;18.848;2022-10-15T08:49:48;98474.92;;;15.42;66.69
62436;BME280;48480;50.252;18.848;2022-10-15T08:55:07;98478.45;;;15.53;66.24
62436;BME280;48480;50.252;18.848;2022-10-15T08:57:42;98484.96;;;15.57;65.99
62436;BME280;48480;50.252;18.848;2022-10-15T09:02:56;98483.84;;;15.73;65.43
62436;BME280;48480;50.252;18.848;2022-10-15T09:05:31;98458.96;;;15.66;65.05
62436;BME280;48480;50.252;18.848;2022-10-15T09:08:09;98483.43;;;15.88;64.85
62436;BME280;48480;50.252;18.848;2022-10-15T09:10:49;98484.98;;;16.01;64.81
62436;BME280;48480;50.252;18.848;2022-10-15T09:13:22;98483.62;;;16.15;64.19
62436;BME280;48480;50.252;18.848;2022-10-15T09:15:53;98481.25;;;16.30;63.65
62436;BME280;48480;50.252;18.848;2022-10-15T09:18:26;98484.23;;;16.57;63.03
62436;BME280;48480;50.252;18.848;2022-10-15T09:20:55;98477.33;;;16.71;62.65
62436;BME280;48480;50.252;18.848;2022-10-15T09:23:25;98480.69;;;16.90;61.90
62436;BME280;48480;50.252;18.848;2022-10-15T09:26:20;98486.38;;;17.00;61.42
62436;BME280;48480;50.252;18.848;2022-10-15T09:29:12;98487.14;;;17.00;60.50
62436;BME280;48480;50.252;18.848;2022-10-15T09:32:13;98485.48;;;16.94;60.24
62436;BME280;48480;50.252;18.848;2022-10-15T09:34:42;98482.70;;;16.90;60.47
62436;BME280;48480;50.252;18.848;2022-10-15T09:37:20;98487.39;;;16.89;60.49
62436;BME280;48480;50.252;18.848;2022-10-15T09:40:32;98485.39;;;16.89;60.58
62436;BME280;48480;50.252;18.848;2022-10-15T09:43:04;98487.34;;;16.90;60.51
62436;BME280;48480;50.252;18.848;2022-10-15T09:45:34;98484.85;;;16.89;59.75
62436;BME280;48480;50.252;18.848;2022-10-15T09:48:00;98456.20;;;16.66;59.13
62436;BME280;48480;50.252;18.848;2022-10-15T09:50:43;98488.14;;;16.87;59.36
62436;BME280;48480;50.252;18.848;2022-10-15T09:56:29;98491.18;;;16.89;59.10
62436;BME280;48480;50.252;18.848;2022-10-15T09:58:59;98490.71;;;16.88;58.69
62436;BME280;48480;50.252;18.848;2022-10-15T10:01:29;98488.02;;;16.90;59.04
62436;BME280;48480;50.252;18.848;2022-10-15T10:04:19;98489.59;;;16.94;58.82
62436;BME280;48480;50.252;18.848;2022-10-15T10:06:56;98489.12;;;16.99;58.75
62436;BME280;48480;50.252;18.848;2022-10-15T10:09:36;98488.92;;;17.03;58.16
62436;BME280;48480;50.252;18.848;2022-10-15T10:12:07;98497.71;;;17.06;57.76
62436;BME280;48480;50.252;18.848;2022-10-15T10:17:54;98499.91;;;17.03;57.58
62436;BME280;48480;50.252;18.848;2022-10-15T10:20:29;98502.73;;;17.00;57.09
62436;BME280;48480;50.252;18.848;2022-10-15T10:23:00;98503.14;;;16.95;56.88
62436;BME280;48480;50.252;18.848;2022-10-15T10:25:33;98509.16;;;16.90;57.23
62436;BME280;48480;50.252;18.848;2022-10-15T10:30:38;98508.22;;;16.88;57.68
62436;BME280;48480;50.252;18.848;2022-10-15T10:33:04;98501.88;;;16.89;57.73
62436;BME280;48480;50.252;18.848;2022-10-15T10:35:49;98463.11;;;16.63;57.71
62436;BME280;48480;50.252;18.848;2022-10-15T10:38:33;98508.06;;;16.88;57.34
62436;BME280;48480;50.252;18.848;2022-10-15T10:41:03;98509.52;;;16.84;57.19
62436;BME280;48480;50.252;18.848;2022-10-15T10:43:39;98503.27;;;16.76;57.14
62436;BME280;48480;50.252;18.848;2022-10-15T10:46:18;98517.08;;;16.81;57.18
62436;BME280;48480;50.252;18.848;2022-10-15T10:48:52;98515.13;;;16.80;56.89
62436;BME280;48480;50.252;18.848;2022-10-15T10:51:21;98516.65;;;16.79;57.08
62436;BME280;48480;50.252;18.848;2022-10-15T10:53:54;98512.16;;;16.79;56.82
62436;BME280;48480;50.252;18.848;2022-10-15T10:56:32;98511.75;;;16.81;57.00
62436;BME280;48480;50.252;18.848;2022-10-15T10:59:26;98511.03;;;16.83;57.02
62436;BME280;48480;50.252;18.848;2022-10-15T11:01:53;98507.13;;;16.88;57.19
62436;BME280;48480;50.252;18.848;2022-10-15T11:04:27;98499.95;;;16.93;56.96
62436;BME280;48480;50.252;18.848;2022-10-15T11:07:09;98504.48;;;16.96;56.76
62436;BME280;48480;50.252;18.848;2022-10-15T11:09:57;98498.39;;;16.97;56.34
62436;BME280;48480;50.252;18.848;2022-10-15T11:12:42;98497.42;;;16.95;56.65
62436;BME280;48480;50.252;18.848;2022-10-15T11:15:35;98498.03;;;16.98;56.76
62436;BME280;48480;50.252;18.848;2022-10-15T11:26:58;98497.81;;;17.10;56.17
62436;BME280;48480;50.252;18.848;2022-10-15T11:29:39;98504.08;;;17.14;56.06
62436;BME280;48480;50.252;18.848;2022-10-15T11:37:50;98499.14;;;17.24;55.45
62436;BME280;48480;50.252;18.848;2022-10-15T11:40:23;98494.56;;;17.32;55.68
62436;BME280;48480;50.252;18.848;2022-10-15T11:43:02;98491.87;;;17.37;55.32
62436;BME280;48480;50.252;18.848;2022-10-15T11:45:49;98492.96;;;17.42;55.23
62436;BME280;48480;50.252;18.848;2022-10-15T11:56:15;98491.58;;;17.55;54.31
62436;BME280;48480;50.252;18.848;2022-10-15T12:01:36;98491.13;;;17.56;54.33
62436;BME280;48480;50.252;18.848;2022-10-15T12:04:11;98480.52;;;17.52;54.35
62436;BME280;48480;50.252;18.848;2022-10-15T12:06:43;98484.84;;;17.56;54.24
62436;BME280;48480;50.252;18.848;2022-10-15T12:09:15;98486.88;;;17.52;54.38
62436;BME280;48480;50.252;18.848;2022-10-15T12:11:52;98488.82;;;17.48;54.29
62436;BME280;48480;50.252;18.848;2022-10-15T12:17:07;98488.91;;;17.40;54.38
62436;BME280;48480;50.252;18.848;2022-10-15T12:19:50;98485.73;;;17.36;54.30
62436;BME280;48480;50.252;18.848;2022-10-15T12:25:41;98483.21;;;17.33;54.53
62436;BME280;48480;50.252;18.848;2022-10-15T12:30:34;98473.92;;;17.42;55.14
62436;BME280;48480;50.252;18.848;2022-10-15T12:35:39;98466.86;;;17.55;54.27
62436;BME280;48480;50.252;18.848;2022-10-15T12:38:31;98465.20;;;17.58;54.04
62436;BME280;48480;50.252;18.848;2022-10-15T12:43:37;98464.77;;;17.73;53.82
62436;BME280;48480;50.252;18.848;2022-10-15T12:46:05;98458.90;;;17.80;53.36
62436;BME280;48480;50.252;18.848;2022-10-15T12:48:38;98461.41;;;17.84;53.28
62436;BME280;48480;50.252;18.848;2022-10-15T12:53:52;98441.36;;;17.87;53.49
62436;BME280;48480;50.252;18.848;2022-10-15T12:58:57;98461.83;;;18.13;52.74
62436;BME280;48480;50.252;18.848;2022-10-15T13:01:50;98460.36;;;18.14;52.78
62436;BME280;48480;50.252;18.848;2022-10-15T13:04:17;98465.13;;;18.15;52.85
62436;BME280;48480;50.252;18.848;2022-10-15T13:06:43;98466.27;;;18.18;52.74
62436;BME280;48480;50.252;18.848;2022-10-15T13:09:18;98462.14;;;18.18;52.31
62436;BME280;48480;50.252;18.848;2022-10-15T13:11:49;98465.17;;;18.12;52.22
62436;BME280;48480;50.252;18.848;2022-10-15T13:14:37;98464.73;;;18.10;52.35
62436;BME280;48480;50.252;18.848;2022-10-15T13:17:17;98466.66;;;18.09;52.08
62436;BME280;48480;50.252;18.848;2022-10-15T13:22:24;98465.80;;;17.98;51.65
62436;BME280;48480;50.252;18.848;2022-10-15T13:24:50;98466.30;;;17.95;52.06
62436;BME280;48480;50.252;18.848;2022-10-15T13:27:22;98460.84;;;17.93;52.13
62436;BME280;48480;50.252;18.848;2022-10-15T13:30:14;98458.80;;;17.91;52.12
62436;BME280;48480;50.252;18.848;2022-10-15T13:32:52;98461.52;;;17.86;52.22
62436;BME280;48480;50.252;18.848;2022-10-15T13:35:26;98458.20;;;17.84;52.46
62436;BME280;48480;50.252;18.848;2022-10-15T13:37:55;98453.04;;;17.82;52.36
62436;BME280;48480;50.252;18.848;2022-10-15T13:40:25;98449.41;;;17.78;52.60
62436;BME280;48480;50.252;18.848;2022-10-15T13:43:01;98455.98;;;17.83;52.87
62436;BME280;48480;50.252;18.848;2022-10-15T13:45:28;98457.61;;;17.85;52.59
62436;BME280;48480;50.252;18.848;2022-10-15T13:47:55;98461.75;;;17.84;52.66
62436;BME280;48480;50.252;18.848;2022-10-15T13:52:59;98467.80;;;17.83;52.67
62436;BME280;48480;50.252;18.848;2022-10-15T13:55:31;98468.99;;;17.84;52.72
62436;BME280;48480;50.252;18.848;2022-10-15T13:58:05;98470.89;;;17.86;52.52
62436;BME280;48480;50.252;18.848;2022-10-15T14:00:38;98471.09;;;17.85;52.68
62436;BME280;48480;50.252;18.848;2022-10-15T14:03:23;98474.17;;;17.84;52.73
62436;BME280;48480;50.252;18.848;2022-10-15T14:05:51;98474.20;;;17.82;52.95
62436;BME280;48480;50.252;18.848;2022-10-15T14:08:26;98480.23;;;17.81;52.80
62436;BME280;48480;50.252;18.848;2022-10-15T14:10:56;98479.48;;;17.78;52.62
62436;BME280;48480;50.252;18.848;2022-10-15T14:13:22;98467.34;;;17.70;52.55
62436;BME280;48480;50.252;18.848;2022-10-15T14:16:11;98472.54;;;17.75;52.97
62436;BME280;48480;50.252;18.848;2022-10-15T14:18:42;98473.17;;;17.76;53.11
62436;BME280;48480;50.252;18.848;2022-10-15T14:21:19;98478.73;;;17.75;53.12
62436;BME280;48480;50.252;18.848;2022-10-15T14:24:03;98483.54;;;17.75;53.22
62436;BME280;48480;50.252;18.848;2022-10-15T14:26:30;98483.63;;;17.76;53.40
62436;BME280;48480;50.252;18.848;2022-10-15T14:28:56;98484.09;;;17.75;53.35
62436;BME280;48480;50.252;18.848;2022-10-15T14:34:02;98486.70;;;17.69;52.96
62436;BME280;48480;50.252;18.848;2022-10-15T14:36:30;98482.35;;;17.65;52.95
62436;BME280;48480;50.252;18.848;2022-10-15T14:39:21;98484.10;;;17.62;53.20
62436;BME280;48480;50.252;18.848;2022-10-15T14:42:03;98483.77;;;17.61;53.28
62436;BME280;48480;50.252;18.848;2022-10-15T14:44:43;98484.89;;;17.58;53.36
62436;BME280;48480;50.252;18.848;2022-10-15T14:47:19;98482.48;;;17.58;53.52
62436;BME280;48480;50.252;18.848;2022-10-15T14:49:45;98480.14;;;17.57;53.61
62436;BME280;48480;50.252;18.848;2022-10-15T14:52:14;98479.31;;;17.54;53.78
62436;BME280;48480;50.252;18.848;2022-10-15T14:54:45;98480.35;;;17.50;53.87
62436;BME280;48480;50.252;18.848;2022-10-15T14:57:21;98479.05;;;17.48;53.76
62436;BME280;48480;50.252;18.848;2022-10-15T14:59:52;98478.82;;;17.43;54.01
62436;BME280;48480;50.252;18.848;2022-10-15T15:02:23;98485.41;;;17.39;54.11